sensor_id;sensor_type;location;lat;lon;timestamp;temperature;humidity
39371;DHT22;25099;51.946;4.838;2024-02-04T00:00:32;10.30;99.90
39371;DHT22;25099;51.946;4.838;2024-02-04T00:02:57;10.40;99.90
39371;DHT22;25099;51.946;4.838;2024-02-04T00:05:23;10.30;99.90
39371;DHT22;25099;51.946;4.838;2024-02-04T00:07:48;10.40;99.90
39371;DHT22;25099;51.946;4.838;2024-02-04T00:10:14;10.40;99.90
39371;DHT22;25099;51.946;4.838;2024-02-04T00:12:41;10.40;99.90
39371;DHT22;25099;51.946;4.838;2024-02-04T00:15:07;10.40;99.90
39371;DHT22;25099;51.946;4.838;2024-02-04T00:17:33;10.40;99.90
39371;DHT22;25099;51.946;4.838;2024-02-04T00:20:03;10.50;99.90
39371;DHT22;25099;51.946;4.838;2024-02-04T00:22:31;10.50;99.90
39371;DHT22;25099;51.946;4.838;2024-02-04T00:24:59;11.40;99.90
39371;DHT22;25099;51.946;4.838;2024-02-04T00:27:33;10.50;99.90
39371;DHT22;25099;51.946;4.838;2024-02-04T00:29:59;10.40;99.90
39371;DHT22;25099;51.946;4.838;2024-02-04T00:32:25;10.40;99.90
39371;DHT22;25099;51.946;4.838;2024-02-04T00:34:52;10.40;99.90
39371;DHT22;25099;51.946;4.838;2024-02-04T00:37:17;10.40;99.90
39371;DHT22;25099;51.946;4.838;2024-02-04T00:39:43;11.40;99.90
39371;DHT22;25099;51.946;4.838;2024-02-04T00:42:08;10.40;99.90
39371;DHT22;25099;51.946;4.838;2024-02-04T00:44:34;10.40;99.90
39371;DHT22;25099;51.946;4.838;2024-02-04T00:46:59;10.40;99.90
39371;DHT22;25099;51.946;4.838;2024-02-04T00:49:25;11.20;99.90
39371;DHT22;25099;51.946;4.838;2024-02-04T00:51:51;10.40;99.90
39371;DHT22;25099;51.946;4.838;2024-02-04T00:54:17;10.40;99.90
39371;DHT22;25099;51.946;4.838;2024-02-04T00:56:43;10.40;99.90
39371;DHT22;25099;51.946;4.838;2024-02-04T00:59:08;10.40;99.90
39371;DHT22;25099;51.946;4.838;2024-02-04T01:01:34;10.40;99.90
39371;DHT22;25099;51.946;4.838;2024-02-04T01:03:59;10.40;99.90
39371;DHT22;25099;51.946;4.838;2024-02-04T01:06:25;10.40;99.90
39371;DHT22;25099;51.946;4.838;2024-02-04T01:08:51;10.40;99.90
39371;DHT22;25099;51.946;4.838;2024-02-04T01:11:16;10.40;99.90
39371;DHT22;25099;51.946;4.838;2024-02-04T01:13:42;10.40;99.90
39371;DHT22;25099;51.946;4.838;2024-02-04T01:16:07;10.50;99.90
39371;DHT22;25099;51.946;4.838;2024-02-04T01:18:33;10.40;99.90
39371;DHT22;25099;51.946;4.838;2024-02-04T01:20:59;11.50;99.90
39371;DHT22;25099;51.946;4.838;2024-02-04T01:23:26;10.40;99.90
39371;DHT22;25099;51.946;4.838;2024-02-04T01:25:51;10.50;99.90
39371;DHT22;25099;51.946;4.838;2024-02-04T01:28:17;10.40;99.90
39371;DHT22;25099;51.946;4.838;2024-02-04T01:30:42;10.40;99.90
39371;DHT22;25099;51.946;4.838;2024-02-04T01:33:08;10.40;99.90
39371;DHT22;25099;51.946;4.838;2024-02-04T01:35:33;10.40;99.90
39371;DHT22;25099;51.946;4.838;2024-02-04T01:37:59;10.40;99.90
39371;DHT22;25099;51.946;4.838;2024-02-04T01:40:25;10.40;99.90
39371;DHT22;25099;51.946;4.838;2024-02-04T01:42:50;10.40;99.90
39371;DHT22;25099;51.946;4.838;2024-02-04T01:45:16;10.50;99.90
39371;DHT22;25099;51.946;4.838;2024-02-04T01:47:41;10.40;99.90
39371;DHT22;25099;51.946;4.838;2024-02-04T01:50:07;10.40;99.90
39371;DHT22;25099;51.946;4.838;2024-02-04T01:52:36;10.40;99.90
39371;DHT22;25099;51.946;4.838;2024-02-04T01:55:05;10.40;99.90
39371;DHT22;25099;51.946;4.838;2024-02-04T01:57:31;10.40;99.90
39371;DHT22;25099;51.946;4.838;2024-02-04T01:59:57;10.40;99.90
39371;DHT22;25099;51.946;4.838;2024-02-04T02:02:25;10.90;99.90
39371;DHT22;25099;51.946;4.838;2024-02-04T02:04:51;10.40;99.90
39371;DHT22;25099;51.946;4.838;2024-02-04T02:07:18;10.40;99.90
39371;DHT22;25099;51.946;4.838;2024-02-04T02:09:45;10.40;99.90
39371;DHT22;25099;51.946;4.838;2024-02-04T02:12:14;10.40;99.90
39371;DHT22;25099;51.946;4.838;2024-02-04T02:14:46;10.50;99.90
39371;DHT22;25099;51.946;4.838;2024-02-04T02:17:16;10.40;99.90
39371;DHT22;25099;51.946;4.838;2024-02-04T02:20:05;10.40;99.90
39371;DHT22;25099;51.946;4.838;2024-02-04T02:22:48;10.40;99.90
39371;DHT22;25099;51.946;4.838;2024-02-04T02:25:14;10.30;99.90
39371;DHT22;25099;51.946;4.838;2024-02-04T02:27:50;10.40;99.90
39371;DHT22;25099;51.946;4.838;2024-02-04T02:30:17;10.30;99.90
39371;DHT22;25099;51.946;4.838;2024-02-04T02:32:46;11.40;99.90
39371;DHT22;25099;51.946;4.838;2024-02-04T02:35:15;10.30;99.90
39371;DHT22;25099;51.946;4.838;2024-02-04T02:37:59;10.20;99.90
39371;DHT22;25099;51.946;4.838;2024-02-04T02:40:58;10.20;99.90
39371;DHT22;25099;51.946;4.838;2024-02-04T02:43:25;10.20;99.90
39371;DHT22;25099;51.946;4.838;2024-02-04T02:45:52;10.20;99.90
39371;DHT22;25099;51.946;4.838;2024-02-04T02:48:18;10.20;99.90
39371;DHT22;25099;51.946;4.838;2024-02-04T02:50:44;10.20;99.90
39371;DHT22;25099;51.946;4.838;2024-02-04T02:53:09;10.20;99.90
39371;DHT22;25099;51.946;4.838;2024-02-04T02:55:35;10.20;99.90
39371;DHT22;25099;51.946;4.838;2024-02-04T02:58:00;10.20;99.90
39371;DHT22;25099;51.946;4.838;2024-02-04T03:00:26;10.60;99.90
39371;DHT22;25099;51.946;4.838;2024-02-04T03:02:51;10.20;99.90
39371;DHT22;25099;51.946;4.838;2024-02-04T03:05:18;10.20;99.90
39371;DHT22;25099;51.946;4.838;2024-02-04T03:07:43;10.20;99.90
39371;DHT22;25099;51.946;4.838;2024-02-04T03:10:09;10.10;99.90
39371;DHT22;25099;51.946;4.838;2024-02-04T03:12:35;10.10;99.90
39371;DHT22;25099;51.946;4.838;2024-02-04T03:15:00;10.10;99.90
39371;DHT22;25099;51.946;4.838;2024-02-04T03:17:26;10.10;99.90
39371;DHT22;25099;51.946;4.838;2024-02-04T03:19:52;10.10;99.90
39371;DHT22;25099;51.946;4.838;2024-02-04T03:22:20;10.10;99.90
39371;DHT22;25099;51.946;4.838;2024-02-04T03:24:47;10.20;99.90
39371;DHT22;25099;51.946;4.838;2024-02-04T03:27:12;10.20;99.90
39371;DHT22;25099;51.946;4.838;2024-02-04T03:29:38;10.20;99.90
39371;DHT22;25099;51.946;4.838;2024-02-04T03:32:04;10.20;99.90
39371;DHT22;25099;51.946;4.838;2024-02-04T03:34:29;10.20;99.90
39371;DHT22;25099;51.946;4.838;2024-02-04T03:36:55;10.20;99.90
39371;DHT22;25099;51.946;4.838;2024-02-04T03:39:20;10.20;99.90
39371;DHT22;25099;51.946;4.838;2024-02-04T03:41:46;10.30;99.90
39371;DHT22;25099;51.946;4.838;2024-02-04T03:44:11;10.20;99.90
39371;DHT22;25099;51.946;4.838;2024-02-04T03:46:37;10.20;99.90
39371;DHT22;25099;51.946;4.838;2024-02-04T03:49:06;10.20;99.90
39371;DHT22;25099;51.946;4.838;2024-02-04T03:51:32;10.20;99.90
39371;DHT22;25099;51.946;4.838;2024-02-04T03:53:57;10.20;99.90
39371;DHT22;25099;51.946;4.838;2024-02-04T03:56:23;10.30;99.90
39371;DHT22;25099;51.946;4.838;2024-02-04T03:58:48;10.30;99.90
39371;DHT22;25099;51.946;4.838;2024-02-04T04:01:15;10.20;99.90
39371;DHT22;25099;51.946;4.838;2024-02-04T04:03:42;10.30;99.90
39371;DHT22;25099;51.946;4.838;2024-02-04T04:06:08;10.30;99.90
39371;DHT22;25099;51.946;4.838;2024-02-04T04:08:34;10.20;99.90
39371;DHT22;25099;51.946;4.838;2024-02-04T04:11:00;10.20;99.90
39371;DHT22;25099;51.946;4.838;2024-02-04T04:13:25;10.30;99.90
39371;DHT22;25099;51.946;4.838;2024-02-04T04:15:51;10.30;99.90
39371;DHT22;25099;51.946;4.838;2024-02-04T04:18:17;10.30;99.90
39371;DHT22;25099;51.946;4.838;2024-02-04T04:20:42;10.20;99.90
39371;DHT22;25099;51.946;4.838;2024-02-04T04:23:08;10.90;99.90
39371;DHT22;25099;51.946;4.838;2024-02-04T04:25:33;10.20;99.90
39371;DHT22;25099;51.946;4.838;2024-02-04T04:27:59;10.20;99.90
39371;DHT22;25099;51.946;4.838;2024-02-04T04:30:25;10.20;99.90
39371;DHT22;25099;51.946;4.838;2024-02-04T04:32:50;10.20;99.90
39371;DHT22;25099;51.946;4.838;2024-02-04T04:35:16;10.20;99.90
39371;DHT22;25099;51.946;4.838;2024-02-04T04:37:41;10.20;99.90
39371;DHT22;25099;51.946;4.838;2024-02-04T04:40:07;10.20;99.90
39371;DHT22;25099;51.946;4.838;2024-02-04T04:42:33;10.20;99.90
39371;DHT22;25099;51.946;4.838;2024-02-04T04:44:59;10.20;99.90
39371;DHT22;25099;51.946;4.838;2024-02-04T04:47:24;11.00;99.90
39371;DHT22;25099;51.946;4.838;2024-02-04T04:49:50;10.20;99.90
39371;DHT22;25099;51.946;4.838;2024-02-04T04:52:16;11.20;99.90
39371;DHT22;25099;51.946;4.838;2024-02-04T04:54:42;10.20;99.90
39371;DHT22;25099;51.946;4.838;2024-02-04T04:57:08;10.20;99.90
39371;DHT22;25099;51.946;4.838;2024-02-04T04:59:33;10.20;99.90
39371;DHT22;25099;51.946;4.838;2024-02-04T05:02:01;10.20;99.90
39371;DHT22;25099;51.946;4.838;2024-02-04T05:04:27;10.20;99.90
39371;DHT22;25099;51.946;4.838;2024-02-04T05:06:52;10.20;99.90
39371;DHT22;25099;51.946;4.838;2024-02-04T05:09:18;10.10;99.90
39371;DHT22;25099;51.946;4.838;2024-02-04T05:11:44;10.20;99.90
39371;DHT22;25099;51.946;4.838;2024-02-04T05:14:09;10.20;99.90
39371;DHT22;25099;51.946;4.838;2024-02-04T05:16:35;10.10;99.90
39371;DHT22;25099;51.946;4.838;2024-02-04T05:19:01;10.60;99.90
39371;DHT22;25099;51.946;4.838;2024-02-04T05:21:27;10.20;99.90
39371;DHT22;25099;51.946;4.838;2024-02-04T05:23:53;10.20;99.90
39371;DHT22;25099;51.946;4.838;2024-02-04T05:26:18;10.20;99.90
39371;DHT22;25099;51.946;4.838;2024-02-04T05:28:44;10.20;99.90
39371;DHT22;25099;51.946;4.838;2024-02-04T05:31:09;10.20;99.90
39371;DHT22;25099;51.946;4.838;2024-02-04T05:33:35;10.30;99.90
39371;DHT22;25099;51.946;4.838;2024-02-04T05:36:00;10.20;99.90
39371;DHT22;25099;51.946;4.838;2024-02-04T05:38:26;10.20;99.90
39371;DHT22;25099;51.946;4.838;2024-02-04T05:40:52;10.20;99.90
39371;DHT22;25099;51.946;4.838;2024-02-04T05:43:17;10.20;99.90
39371;DHT22;25099;51.946;4.838;2024-02-04T05:45:43;10.20;99.90
39371;DHT22;25099;51.946;4.838;2024-02-04T05:48:09;10.20;99.90
39371;DHT22;25099;51.946;4.838;2024-02-04T05:50:35;10.20;99.90
39371;DHT22;25099;51.946;4.838;2024-02-04T05:53:00;10.30;99.90
39371;DHT22;25099;51.946;4.838;2024-02-04T05:55:26;10.30;99.90
39371;DHT22;25099;51.946;4.838;2024-02-04T05:57:51;10.30;99.90
39371;DHT22;25099;51.946;4.838;2024-02-04T06:00:17;10.30;99.90
39371;DHT22;25099;51.946;4.838;2024-02-04T06:02:43;10.30;99.90
39371;DHT22;25099;51.946;4.838;2024-02-04T06:05:09;10.30;99.90
39371;DHT22;25099;51.946;4.838;2024-02-04T06:07:35;10.30;99.90
39371;DHT22;25099;51.946;4.838;2024-02-04T06:10:01;10.30;99.90
39371;DHT22;25099;51.946;4.838;2024-02-04T06:12:29;10.30;99.90
39371;DHT22;25099;51.946;4.838;2024-02-04T06:14:54;10.20;99.90
39371;DHT22;25099;51.946;4.838;2024-02-04T06:17:20;10.30;99.90
39371;DHT22;25099;51.946;4.838;2024-02-04T06:19:46;10.20;99.90
39371;DHT22;25099;51.946;4.838;2024-02-04T06:22:11;10.20;99.90
39371;DHT22;25099;51.946;4.838;2024-02-04T06:24:37;10.20;99.90
39371;DHT22;25099;51.946;4.838;2024-02-04T06:27:04;10.20;99.90
39371;DHT22;25099;51.946;4.838;2024-02-04T06:29:30;10.20;99.90
39371;DHT22;25099;51.946;4.838;2024-02-04T06:31:55;11.00;99.90
39371;DHT22;25099;51.946;4.838;2024-02-04T06:34:21;10.30;99.90
39371;DHT22;25099;51.946;4.838;2024-02-04T06:36:47;10.80;99.90
39371;DHT22;25099;51.946;4.838;2024-02-04T06:39:13;10.20;99.90
39371;DHT22;25099;51.946;4.838;2024-02-04T06:41:39;10.20;99.90
39371;DHT22;25099;51.946;4.838;2024-02-04T06:44:05;10.20;99.90
39371;DHT22;25099;51.946;4.838;2024-02-04T06:46:31;10.20;99.90
39371;DHT22;25099;51.946;4.838;2024-02-04T06:48:56;10.20;99.90
39371;DHT22;25099;51.946;4.838;2024-02-04T06:51:22;10.20;99.90
39371;DHT22;25099;51.946;4.838;2024-02-04T06:53:48;10.20;99.90
39371;DHT22;25099;51.946;4.838;2024-02-04T06:56:13;10.20;99.90
39371;DHT22;25099;51.946;4.838;2024-02-04T06:58:40;10.20;99.90
39371;DHT22;25099;51.946;4.838;2024-02-04T07:01:06;10.20;99.90
39371;DHT22;25099;51.946;4.838;2024-02-04T07:03:31;10.20;99.90
39371;DHT22;25099;51.946;4.838;2024-02-04T07:05:58;10.20;99.90
39371;DHT22;25099;51.946;4.838;2024-02-04T07:08:24;10.10;99.90
39371;DHT22;25099;51.946;4.838;2024-02-04T07:10:50;10.10;99.90
39371;DHT22;25099;51.946;4.838;2024-02-04T07:13:15;11.00;99.90
39371;DHT22;25099;51.946;4.838;2024-02-04T07:15:41;10.00;99.90
39371;DHT22;25099;51.946;4.838;2024-02-04T07:18:06;10.10;99.90
39371;DHT22;25099;51.946;4.838;2024-02-04T07:20:33;10.00;99.90
39371;DHT22;25099;51.946;4.838;2024-02-04T07:22:58;10.00;99.90
39371;DHT22;25099;51.946;4.838;2024-02-04T07:25:24;10.00;99.90
39371;DHT22;25099;51.946;4.838;2024-02-04T07:27:49;10.10;99.90
39371;DHT22;25099;51.946;4.838;2024-02-04T07:30:15;10.00;99.90
39371;DHT22;25099;51.946;4.838;2024-02-04T07:32:41;10.00;99.90
39371;DHT22;25099;51.946;4.838;2024-02-04T07:35:07;10.00;99.90
39371;DHT22;25099;51.946;4.838;2024-02-04T07:37:37;10.00;99.90
39371;DHT22;25099;51.946;4.838;2024-02-04T07:40:03;10.00;99.90
39371;DHT22;25099;51.946;4.838;2024-02-04T07:42:30;10.00;99.90
39371;DHT22;25099;51.946;4.838;2024-02-04T07:44:56;10.10;99.90
39371;DHT22;25099;51.946;4.838;2024-02-04T07:47:22;10.00;99.90
39371;DHT22;25099;51.946;4.838;2024-02-04T07:49:48;10.00;99.90
39371;DHT22;25099;51.946;4.838;2024-02-04T07:52:14;10.00;99.90
39371;DHT22;25099;51.946;4.838;2024-02-04T07:54:40;10.30;99.90
39371;DHT22;25099;51.946;4.838;2024-02-04T07:57:12;10.80;99.90
39371;DHT22;25099;51.946;4.838;2024-02-04T07:59:53;10.00;99.90
39371;DHT22;25099;51.946;4.838;2024-02-04T08:02:19;10.90;99.90
39371;DHT22;25099;51.946;4.838;2024-02-04T08:04:44;10.90;99.90
39371;DHT22;25099;51.946;4.838;2024-02-04T08:07:10;10.80;99.90
39371;DHT22;25099;51.946;4.838;2024-02-04T08:09:35;10.00;99.90
39371;DHT22;25099;51.946;4.838;2024-02-04T08:12:01;10.20;99.90
39371;DHT22;25099;51.946;4.838;2024-02-04T08:14:36;10.00;99.90
39371;DHT22;25099;51.946;4.838;2024-02-04T08:17:02;10.60;99.90
39371;DHT22;25099;51.946;4.838;2024-02-04T08:19:27;10.00;99.90
39371;DHT22;25099;51.946;4.838;2024-02-04T08:21:53;10.70;99.90
39371;DHT22;25099;51.946;4.838;2024-02-04T08:24:18;10.10;99.90
39371;DHT22;25099;51.946;4.838;2024-02-04T08:26:44;10.10;99.90
39371;DHT22;25099;51.946;4.838;2024-02-04T08:29:10;10.20;99.90
39371;DHT22;25099;51.946;4.838;2024-02-04T08:31:36;10.20;99.90
39371;DHT22;25099;51.946;4.838;2024-02-04T08:34:02;10.30;99.90
39371;DHT22;25099;51.946;4.838;2024-02-04T08:36:29;10.30;99.90
39371;DHT22;25099;51.946;4.838;2024-02-04T08:38:56;10.40;99.90
39371;DHT22;25099;51.946;4.838;2024-02-04T08:41:21;10.40;99.90
39371;DHT22;25099;51.946;4.838;2024-02-04T08:43:47;10.40;99.90
39371;DHT22;25099;51.946;4.838;2024-02-04T08:46:13;11.10;99.90
39371;DHT22;25099;51.946;4.838;2024-02-04T08:48:38;10.50;99.90
39371;DHT22;25099;51.946;4.838;2024-02-04T08:51:04;10.50;99.90
39371;DHT22;25099;51.946;4.838;2024-02-04T08:53:35;10.60;99.90
39371;DHT22;25099;51.946;4.838;2024-02-04T08:56:00;10.60;99.90
39371;DHT22;25099;51.946;4.838;2024-02-04T08:58:26;10.90;99.90
39371;DHT22;25099;51.946;4.838;2024-02-04T09:00:51;10.60;99.90
39371;DHT22;25099;51.946;4.838;2024-02-04T09:03:17;10.60;99.90
39371;DHT22;25099;51.946;4.838;2024-02-04T09:05:43;10.70;99.90
39371;DHT22;25099;51.946;4.838;2024-02-04T09:08:08;10.70;99.90
39371;DHT22;25099;51.946;4.838;2024-02-04T09:10:36;10.70;99.90
39371;DHT22;25099;51.946;4.838;2024-02-04T09:13:02;10.70;99.90
39371;DHT22;25099;51.946;4.838;2024-02-04T09:15:27;10.70;99.90
39371;DHT22;25099;51.946;4.838;2024-02-04T09:17:53;10.70;99.90
39371;DHT22;25099;51.946;4.838;2024-02-04T09:20:18;10.70;99.90
39371;DHT22;25099;51.946;4.838;2024-02-04T09:22:44;10.80;99.90
39371;DHT22;25099;51.946;4.838;2024-02-04T09:25:09;10.80;99.90
39371;DHT22;25099;51.946;4.838;2024-02-04T09:27:35;10.80;99.90
39371;DHT22;25099;51.946;4.838;2024-02-04T09:30:01;10.80;99.90
39371;DHT22;25099;51.946;4.838;2024-02-04T09:32:26;10.90;99.90
39371;DHT22;25099;51.946;4.838;2024-02-04T09:34:52;10.90;99.90
39371;DHT22;25099;51.946;4.838;2024-02-04T09:37:17;11.50;99.90
39371;DHT22;25099;51.946;4.838;2024-02-04T09:39:43;10.90;99.90
39371;DHT22;25099;51.946;4.838;2024-02-04T09:42:09;10.90;99.90
39371;DHT22;25099;51.946;4.838;2024-02-04T09:44:35;10.90;99.90
39371;DHT22;25099;51.946;4.838;2024-02-04T09:47:01;10.90;99.90
39371;DHT22;25099;51.946;4.838;2024-02-04T09:49:27;10.90;99.90
39371;DHT22;25099;51.946;4.838;2024-02-04T09:51:54;10.90;99.90
39371;DHT22;25099;51.946;4.838;2024-02-04T09:54:21;10.90;99.90
39371;DHT22;25099;51.946;4.838;2024-02-04T09:56:47;11.60;99.90
39371;DHT22;25099;51.946;4.838;2024-02-04T09:59:16;10.70;99.90
39371;DHT22;25099;51.946;4.838;2024-02-04T10:01:42;10.60;99.90
39371;DHT22;25099;51.946;4.838;2024-02-04T10:04:08;11.10;99.90
39371;DHT22;25099;51.946;4.838;2024-02-04T10:06:34;10.50;99.90
39371;DHT22;25099;51.946;4.838;2024-02-04T10:09:00;10.50;99.90
39371;DHT22;25099;51.946;4.838;2024-02-04T10:11:25;10.40;99.90
39371;DHT22;25099;51.946;4.838;2024-02-04T10:14:03;10.40;99.90
39371;DHT22;25099;51.946;4.838;2024-02-04T10:16:29;10.00;99.90
39371;DHT22;25099;51.946;4.838;2024-02-04T10:18:58;10.40;99.90
39371;DHT22;25099;51.946;4.838;2024-02-04T10:21:24;10.40;99.90
39371;DHT22;25099;51.946;4.838;2024-02-04T10:24:12;10.50;99.90
39371;DHT22;25099;51.946;4.838;2024-02-04T10:26:40;10.30;99.90
39371;DHT22;25099;51.946;4.838;2024-02-04T10:29:26;10.90;99.90
39371;DHT22;25099;51.946;4.838;2024-02-04T10:31:55;11.20;99.90
39371;DHT22;25099;51.946;4.838;2024-02-04T10:37:04;10.80;99.90
39371;DHT22;25099;51.946;4.838;2024-02-04T10:39:29;10.20;99.90
39371;DHT22;25099;51.946;4.838;2024-02-04T10:41:56;10.10;99.90
39371;DHT22;25099;51.946;4.838;2024-02-04T10:44:42;10.20;99.90
39371;DHT22;25099;51.946;4.838;2024-02-04T10:47:30;11.20;99.90
39371;DHT22;25099;51.946;4.838;2024-02-04T10:50:16;10.20;99.90
39371;DHT22;25099;51.946;4.838;2024-02-04T10:52:57;10.10;99.90
39371;DHT22;25099;51.946;4.838;2024-02-04T10:55:27;10.00;99.90
39371;DHT22;25099;51.946;4.838;2024-02-04T10:57:55;10.10;99.90
39371;DHT22;25099;51.946;4.838;2024-02-04T11:00:21;10.10;99.90
39371;DHT22;25099;51.946;4.838;2024-02-04T11:02:47;10.10;99.90
39371;DHT22;25099;51.946;4.838;2024-02-04T11:05:15;10.10;99.90
39371;DHT22;25099;51.946;4.838;2024-02-04T11:07:43;10.10;99.90
39371;DHT22;25099;51.946;4.838;2024-02-04T11:10:10;10.30;99.90
39371;DHT22;25099;51.946;4.838;2024-02-04T11:12:38;10.10;99.90
39371;DHT22;25099;51.946;4.838;2024-02-04T11:15:11;10.10;99.90
39371;DHT22;25099;51.946;4.838;2024-02-04T11:17:50;10.10;99.90
39371;DHT22;25099;51.946;4.838;2024-02-04T11:20:28;10.20;99.90
39371;DHT22;25099;51.946;4.838;2024-02-04T11:25:56;10.20;99.90
39371;DHT22;25099;51.946;4.838;2024-02-04T11:28:23;10.20;99.90
39371;DHT22;25099;51.946;4.838;2024-02-04T11:30:51;10.20;99.90
39371;DHT22;25099;51.946;4.838;2024-02-04T11:33:21;10.30;99.90
39371;DHT22;25099;51.946;4.838;2024-02-04T11:36:04;10.30;99.90
39371;DHT22;25099;51.946;4.838;2024-02-04T11:38:36;10.30;99.90
39371;DHT22;25099;51.946;4.838;2024-02-04T11:41:03;10.40;99.90
39371;DHT22;25099;51.946;4.838;2024-02-04T11:43:32;10.40;99.90
39371;DHT22;25099;51.946;4.838;2024-02-04T11:45:57;10.40;99.90
39371;DHT22;25099;51.946;4.838;2024-02-04T11:48:38;10.50;99.90
39371;DHT22;25099;51.946;4.838;2024-02-04T11:51:04;10.60;99.90
39371;DHT22;25099;51.946;4.838;2024-02-04T11:53:30;10.70;99.90
39371;DHT22;25099;51.946;4.838;2024-02-04T11:55:59;10.80;99.90
39371;DHT22;25099;51.946;4.838;2024-02-04T11:58:27;10.80;99.90
39371;DHT22;25099;51.946;4.838;2024-02-04T12:00:53;10.90;99.90
39371;DHT22;25099;51.946;4.838;2024-02-04T12:03:32;10.90;99.90
39371;DHT22;25099;51.946;4.838;2024-02-04T12:05:59;10.90;99.90
39371;DHT22;25099;51.946;4.838;2024-02-04T12:11:01;11.00;99.90
39371;DHT22;25099;51.946;4.838;2024-02-04T12:13:47;11.90;99.90
39371;DHT22;25099;51.946;4.838;2024-02-04T12:16:15;11.70;99.90
39371;DHT22;25099;51.946;4.838;2024-02-04T12:18:48;11.50;99.90
39371;DHT22;25099;51.946;4.838;2024-02-04T12:21:14;11.30;99.90
39371;DHT22;25099;51.946;4.838;2024-02-04T12:23:40;11.00;99.90
39371;DHT22;25099;51.946;4.838;2024-02-04T12:26:05;11.00;99.90
39371;DHT22;25099;51.946;4.838;2024-02-04T12:28:31;11.00;99.90
39371;DHT22;25099;51.946;4.838;2024-02-04T12:30:57;11.10;99.90
39371;DHT22;25099;51.946;4.838;2024-02-04T12:33:25;11.00;99.90
39371;DHT22;25099;51.946;4.838;2024-02-04T12:35:52;11.00;99.90
39371;DHT22;25099;51.946;4.838;2024-02-04T12:38:17;11.00;99.90
39371;DHT22;25099;51.946;4.838;2024-02-04T12:40:43;11.00;99.90
39371;DHT22;25099;51.946;4.838;2024-02-04T12:43:11;11.90;99.90
39371;DHT22;25099;51.946;4.838;2024-02-04T12:45:37;11.00;99.90
39371;DHT22;25099;51.946;4.838;2024-02-04T12:48:02;11.10;99.90
39371;DHT22;25099;51.946;4.838;2024-02-04T12:50:29;11.10;99.90
39371;DHT22;25099;51.946;4.838;2024-02-04T12:53:08;11.10;99.90
39371;DHT22;25099;51.946;4.838;2024-02-04T12:55:37;11.10;99.90
39371;DHT22;25099;51.946;4.838;2024-02-04T12:58:07;11.10;99.90
39371;DHT22;25099;51.946;4.838;2024-02-04T13:00:34;11.10;99.90
39371;DHT22;25099;51.946;4.838;2024-02-04T13:03:01;11.10;99.90
39371;DHT22;25099;51.946;4.838;2024-02-04T13:05:27;11.10;99.90
39371;DHT22;25099;51.946;4.838;2024-02-04T13:07:56;11.10;99.90
39371;DHT22;25099;51.946;4.838;2024-02-04T13:10:25;11.10;99.90
39371;DHT22;25099;51.946;4.838;2024-02-04T13:13:02;11.10;99.90
39371;DHT22;25099;51.946;4.838;2024-02-04T13:15:29;11.10;99.90
39371;DHT22;25099;51.946;4.838;2024-02-04T13:17:56;11.10;99.90
39371;DHT22;25099;51.946;4.838;2024-02-04T13:20:22;11.60;99.90
39371;DHT22;25099;51.946;4.838;2024-02-04T13:22:48;11.10;99.90
39371;DHT22;25099;51.946;4.838;2024-02-04T13:25:14;11.10;99.90
39371;DHT22;25099;51.946;4.838;2024-02-04T13:27:40;11.10;99.90
39371;DHT22;25099;51.946;4.838;2024-02-04T13:30:07;11.10;99.90
39371;DHT22;25099;51.946;4.838;2024-02-04T13:32:40;11.10;99.90
39371;DHT22;25099;51.946;4.838;2024-02-04T13:35:09;11.10;99.90
39371;DHT22;25099;51.946;4.838;2024-02-04T13:37:36;11.20;99.90
39371;DHT22;25099;51.946;4.838;2024-02-04T13:40:03;11.10;99.90
39371;DHT22;25099;51.946;4.838;2024-02-04T13:42:29;11.20;99.90
39371;DHT22;25099;51.946;4.838;2024-02-04T13:44:54;11.20;99.90
39371;DHT22;25099;51.946;4.838;2024-02-04T13:47:20;11.20;99.90
39371;DHT22;25099;51.946;4.838;2024-02-04T13:49:46;11.20;99.90
39371;DHT22;25099;51.946;4.838;2024-02-04T13:52:12;11.20;99.90
39371;DHT22;25099;51.946;4.838;2024-02-04T13:54:37;11.20;99.90
39371;DHT22;25099;51.946;4.838;2024-02-04T13:57:03;11.20;99.90
39371;DHT22;25099;51.946;4.838;2024-02-04T13:59:28;11.20;99.90
39371;DHT22;25099;51.946;4.838;2024-02-04T14:01:54;11.20;99.90
39371;DHT22;25099;51.946;4.838;2024-02-04T14:04:19;12.20;99.90
39371;DHT22;25099;51.946;4.838;2024-02-04T14:06:45;11.30;99.90
39371;DHT22;25099;51.946;4.838;2024-02-04T14:09:11;11.30;99.90
39371;DHT22;25099;51.946;4.838;2024-02-04T14:11:38;11.20;99.90
39371;DHT22;25099;51.946;4.838;2024-02-04T14:14:04;11.20;99.90
39371;DHT22;25099;51.946;4.838;2024-02-04T14:16:29;11.20;99.90
39371;DHT22;25099;51.946;4.838;2024-02-04T14:18:55;11.20;99.90
39371;DHT22;25099;51.946;4.838;2024-02-04T14:21:21;11.10;99.90
39371;DHT22;25099;51.946;4.838;2024-02-04T14:23:46;11.10;99.90
39371;DHT22;25099;51.946;4.838;2024-02-04T14:26:21;11.00;99.90
39371;DHT22;25099;51.946;4.838;2024-02-04T14:28:46;11.00;99.90
39371;DHT22;25099;51.946;4.838;2024-02-04T14:31:12;10.90;99.90
39371;DHT22;25099;51.946;4.838;2024-02-04T14:33:39;10.90;99.90
39371;DHT22;25099;51.946;4.838;2024-02-04T14:36:06;10.90;99.90
39371;DHT22;25099;51.946;4.838;2024-02-04T14:38:32;10.90;99.90
39371;DHT22;25099;51.946;4.838;2024-02-04T14:40:58;10.80;99.90
39371;DHT22;25099;51.946;4.838;2024-02-04T14:43:24;10.80;99.90
39371;DHT22;25099;51.946;4.838;2024-02-04T14:45:50;11.30;99.90
39371;DHT22;25099;51.946;4.838;2024-02-04T14:48:16;10.90;99.90
39371;DHT22;25099;51.946;4.838;2024-02-04T14:50:42;10.90;99.90
39371;DHT22;25099;51.946;4.838;2024-02-04T14:53:07;10.90;99.90
39371;DHT22;25099;51.946;4.838;2024-02-04T14:55:33;11.90;99.90
39371;DHT22;25099;51.946;4.838;2024-02-04T14:57:59;10.80;99.90
39371;DHT22;25099;51.946;4.838;2024-02-04T15:00:24;10.80;99.90
39371;DHT22;25099;51.946;4.838;2024-02-04T15:02:51;10.80;99.90
39371;DHT22;25099;51.946;4.838;2024-02-04T15:05:17;10.90;99.90
39371;DHT22;25099;51.946;4.838;2024-02-04T15:07:43;10.90;99.90
39371;DHT22;25099;51.946;4.838;2024-02-04T15:10:09;10.90;99.90
39371;DHT22;25099;51.946;4.838;2024-02-04T15:12:36;10.90;99.90
39371;DHT22;25099;51.946;4.838;2024-02-04T15:15:03;10.90;99.90
39371;DHT22;25099;51.946;4.838;2024-02-04T15:17:29;10.90;99.90
39371;DHT22;25099;51.946;4.838;2024-02-04T15:19:54;10.90;99.90
39371;DHT22;25099;51.946;4.838;2024-02-04T15:22:20;10.90;99.90
39371;DHT22;25099;51.946;4.838;2024-02-04T15:24:46;11.00;99.90
39371;DHT22;25099;51.946;4.838;2024-02-04T15:27:12;11.00;99.90
39371;DHT22;25099;51.946;4.838;2024-02-04T15:29:38;11.00;99.90
39371;DHT22;25099;51.946;4.838;2024-02-04T15:32:04;11.00;99.90
39371;DHT22;25099;51.946;4.838;2024-02-04T15:34:31;11.10;99.90
39371;DHT22;25099;51.946;4.838;2024-02-04T15:37:02;11.00;99.90